sensor_id;sensor_type;location;lat;lon;timestamp;temperature;humidity
25512;DHT22;13414;44.534;18.700;2022-07-11T00:01:22;15.80;99.90
25512;DHT22;13414;44.534;18.700;2022-07-11T00:03:49;15.70;99.90
25512;DHT22;13414;44.534;18.700;2022-07-11T00:06:16;15.70;99.90
25512;DHT22;13414;44.534;18.700;2022-07-11T00:08:44;15.70;99.90
25512;DHT22;13414;44.534;18.700;2022-07-11T00:11:11;15.60;99.90
25512;DHT22;13414;44.534;18.700;2022-07-11T00:13:39;15.50;99.90
25512;DHT22;13414;44.534;18.700;2022-07-11T00:16:08;15.50;99.90
25512;DHT22;13414;44.534;18.700;2022-07-11T00:18:35;15.50;99.90
25512;DHT22;13414;44.534;18.700;2022-07-11T00:21:02;15.50;99.90
25512;DHT22;13414;44.534;18.700;2022-07-11T00:23:30;15.60;99.90
25512;DHT22;13414;44.534;18.700;2022-07-11T00:25:57;15.60;99.90
25512;DHT22;13414;44.534;18.700;2022-07-11T00:28:24;15.70;99.90
25512;DHT22;13414;44.534;18.700;2022-07-11T00:30:52;15.70;99.90
25512;DHT22;13414;44.534;18.700;2022-07-11T00:33:21;15.70;99.90
25512;DHT22;13414;44.534;18.700;2022-07-11T00:35:48;15.60;99.90
25512;DHT22;13414;44.534;18.700;2022-07-11T00:38:15;15.60;99.90
25512;DHT22;13414;44.534;18.700;2022-07-11T00:40:43;15.60;99.90
25512;DHT22;13414;44.534;18.700;2022-07-11T00:43:10;15.60;99.90
25512;DHT22;13414;44.534;18.700;2022-07-11T00:45:38;15.50;99.90
25512;DHT22;13414;44.534;18.700;2022-07-11T00:48:06;15.50;99.90
25512;DHT22;13414;44.534;18.700;2022-07-11T00:50:35;15.40;99.90
25512;DHT22;13414;44.534;18.700;2022-07-11T00:53:02;15.40;99.90
25512;DHT22;13414;44.534;18.700;2022-07-11T00:55:30;15.40;99.90
25512;DHT22;13414;44.534;18.700;2022-07-11T00:57:57;15.50;99.90
25512;DHT22;13414;44.534;18.700;2022-07-11T01:00:24;15.40;99.90
25512;DHT22;13414;44.534;18.700;2022-07-11T01:02:52;15.40;99.90
25512;DHT22;13414;44.534;18.700;2022-07-11T01:05:19;15.40;99.90
25512;DHT22;13414;44.534;18.700;2022-07-11T01:07:48;15.40;99.90
25512;DHT22;13414;44.534;18.700;2022-07-11T01:10:15;15.40;99.90
25512;DHT22;13414;44.534;18.700;2022-07-11T01:12:43;15.40;99.90
25512;DHT22;13414;44.534;18.700;2022-07-11T01:15:14;15.50;99.90
25512;DHT22;13414;44.534;18.700;2022-07-11T01:17:41;15.50;99.90
25512;DHT22;13414;44.534;18.700;2022-07-11T01:20:09;15.40;99.90
25512;DHT22;13414;44.534;18.700;2022-07-11T01:22:40;15.50;99.90
25512;DHT22;13414;44.534;18.700;2022-07-11T01:25:12;15.40;99.90
25512;DHT22;13414;44.534;18.700;2022-07-11T01:27:55;15.50;99.90
25512;DHT22;13414;44.534;18.700;2022-07-11T01:30:23;15.40;99.90
25512;DHT22;13414;44.534;18.700;2022-07-11T01:32:51;15.40;99.90
25512;DHT22;13414;44.534;18.700;2022-07-11T01:35:19;15.40;99.90
25512;DHT22;13414;44.534;18.700;2022-07-11T01:37:46;15.50;99.90
25512;DHT22;13414;44.534;18.700;2022-07-11T01:40:16;15.50;99.90
25512;DHT22;13414;44.534;18.700;2022-07-11T01:42:43;15.60;99.90
25512;DHT22;13414;44.534;18.700;2022-07-11T01:45:11;15.60;99.90
25512;DHT22;13414;44.534;18.700;2022-07-11T01:47:39;15.60;99.90
25512;DHT22;13414;44.534;18.700;2022-07-11T01:50:07;15.60;99.90
25512;DHT22;13414;44.534;18.700;2022-07-11T01:52:34;15.70;99.90
25512;DHT22;13414;44.534;18.700;2022-07-11T01:55:01;15.70;99.90
25512;DHT22;13414;44.534;18.700;2022-07-11T01:57:30;15.70;99.90
25512;DHT22;13414;44.534;18.700;2022-07-11T01:59:57;15.70;99.90
25512;DHT22;13414;44.534;18.700;2022-07-11T02:02:25;15.70;99.90
25512;DHT22;13414;44.534;18.700;2022-07-11T02:04:52;15.70;99.90
25512;DHT22;13414;44.534;18.700;2022-07-11T02:07:19;15.70;99.90
25512;DHT22;13414;44.534;18.700;2022-07-11T02:10:08;15.70;99.90
25512;DHT22;13414;44.534;18.700;2022-07-11T02:12:37;15.80;99.90
25512;DHT22;13414;44.534;18.700;2022-07-11T02:15:05;15.80;99.90
25512;DHT22;13414;44.534;18.700;2022-07-11T02:17:32;15.80;99.90
25512;DHT22;13414;44.534;18.700;2022-07-11T02:20:00;15.90;99.90
25512;DHT22;13414;44.534;18.700;2022-07-11T02:22:27;15.90;99.90
25512;DHT22;13414;44.534;18.700;2022-07-11T02:24:55;16.00;99.90
25512;DHT22;13414;44.534;18.700;2022-07-11T02:27:23;16.00;99.90
25512;DHT22;13414;44.534;18.700;2022-07-11T02:29:51;16.00;99.90
25512;DHT22;13414;44.534;18.700;2022-07-11T02:32:19;16.00;99.90
25512;DHT22;13414;44.534;18.700;2022-07-11T02:34:46;16.00;99.90
25512;DHT22;13414;44.534;18.700;2022-07-11T02:37:13;16.00;99.90
25512;DHT22;13414;44.534;18.700;2022-07-11T02:39:41;16.00;99.90
25512;DHT22;13414;44.534;18.700;2022-07-11T02:42:09;16.00;99.90
25512;DHT22;13414;44.534;18.700;2022-07-11T02:44:37;16.00;99.90
25512;DHT22;13414;44.534;18.700;2022-07-11T02:47:05;15.90;99.90
25512;DHT22;13414;44.534;18.700;2022-07-11T02:49:33;15.90;99.90
25512;DHT22;13414;44.534;18.700;2022-07-11T02:52:00;15.80;99.90
25512;DHT22;13414;44.534;18.700;2022-07-11T02:54:27;15.80;99.90
25512;DHT22;13414;44.534;18.700;2022-07-11T02:56:55;15.70;99.90
25512;DHT22;13414;44.534;18.700;2022-07-11T02:59:23;15.70;99.90
25512;DHT22;13414;44.534;18.700;2022-07-11T03:01:50;15.60;99.90
25512;DHT22;13414;44.534;18.700;2022-07-11T03:04:19;15.50;99.90
25512;DHT22;13414;44.534;18.700;2022-07-11T03:06:46;15.50;99.90
25512;DHT22;13414;44.534;18.700;2022-07-11T03:09:13;15.40;99.90
25512;DHT22;13414;44.534;18.700;2022-07-11T03:11:41;15.30;99.90
25512;DHT22;13414;44.534;18.700;2022-07-11T03:14:31;15.30;99.90
25512;DHT22;13414;44.534;18.700;2022-07-11T03:16:58;15.20;99.90
25512;DHT22;13414;44.534;18.700;2022-07-11T03:19:27;15.10;99.90
25512;DHT22;13414;44.534;18.700;2022-07-11T03:21:55;15.00;99.90
25512;DHT22;13414;44.534;18.700;2022-07-11T03:24:22;14.90;99.90
25512;DHT22;13414;44.534;18.700;2022-07-11T03:26:49;15.00;99.90
25512;DHT22;13414;44.534;18.700;2022-07-11T03:29:17;14.90;99.90
25512;DHT22;13414;44.534;18.700;2022-07-11T03:31:44;14.90;99.90
25512;DHT22;13414;44.534;18.700;2022-07-11T03:34:11;14.90;99.90
25512;DHT22;13414;44.534;18.700;2022-07-11T03:36:40;14.90;99.90
25512;DHT22;13414;44.534;18.700;2022-07-11T03:39:07;14.90;99.90
25512;DHT22;13414;44.534;18.700;2022-07-11T03:41:34;14.80;99.90
25512;DHT22;13414;44.534;18.700;2022-07-11T03:44:02;14.80;99.90
25512;DHT22;13414;44.534;18.700;2022-07-11T03:46:29;14.70;99.90
25512;DHT22;13414;44.534;18.700;2022-07-11T03:48:56;14.70;99.90
25512;DHT22;13414;44.534;18.700;2022-07-11T03:51:24;14.70;99.90
25512;DHT22;13414;44.534;18.700;2022-07-11T03:53:53;14.70;99.90
25512;DHT22;13414;44.534;18.700;2022-07-11T03:56:20;14.70;99.90
25512;DHT22;13414;44.534;18.700;2022-07-11T03:58:48;14.80;99.90
25512;DHT22;13414;44.534;18.700;2022-07-11T04:01:15;15.00;99.90
25512;DHT22;13414;44.534;18.700;2022-07-11T04:03:43;16.00;99.90
25512;DHT22;13414;44.534;18.700;2022-07-11T04:06:10;17.30;99.90
25512;DHT22;13414;44.534;18.700;2022-07-11T04:08:37;18.50;99.90
25512;DHT22;13414;44.534;18.700;2022-07-11T04:11:06;19.30;99.90
25512;DHT22;13414;44.534;18.700;2022-07-11T04:13:34;19.80;99.90
25512;DHT22;13414;44.534;18.700;2022-07-11T04:16:02;20.70;99.90
25512;DHT22;13414;44.534;18.700;2022-07-11T04:18:29;21.60;99.90
25512;DHT22;13414;44.534;18.700;2022-07-11T04:20:56;22.70;99.90
25512;DHT22;13414;44.534;18.700;2022-07-11T04:23:23;23.20;99.90
25512;DHT22;13414;44.534;18.700;2022-07-11T04:25:51;23.80;99.90
25512;DHT22;13414;44.534;18.700;2022-07-11T04:28:19;24.30;99.90
25512;DHT22;13414;44.534;18.700;2022-07-11T04:30:46;24.70;99.90
25512;DHT22;13414;44.534;18.700;2022-07-11T04:33:14;25.30;99.90
25512;DHT22;13414;44.534;18.700;2022-07-11T04:35:41;25.80;99.90
25512;DHT22;13414;44.534;18.700;2022-07-11T04:38:09;26.00;99.90
25512;DHT22;13414;44.534;18.700;2022-07-11T04:40:36;26.10;99.90
25512;DHT22;13414;44.534;18.700;2022-07-11T04:43:04;26.70;99.90
25512;DHT22;13414;44.534;18.700;2022-07-11T04:45:33;26.60;99.90
25512;DHT22;13414;44.534;18.700;2022-07-11T04:48:00;26.50;99.90
25512;DHT22;13414;44.534;18.700;2022-07-11T04:50:28;27.10;99.90
25512;DHT22;13414;44.534;18.700;2022-07-11T04:52:56;27.30;99.90
25512;DHT22;13414;44.534;18.700;2022-07-11T04:55:23;27.10;99.70
25512;DHT22;13414;44.534;18.700;2022-07-11T04:57:51;26.80;99.90
25512;DHT22;13414;44.534;18.700;2022-07-11T05:00:18;26.60;99.90
25512;DHT22;13414;44.534;18.700;2022-07-11T05:02:47;26.70;99.90
25512;DHT22;13414;44.534;18.700;2022-07-11T05:05:14;26.90;99.90
25512;DHT22;13414;44.534;18.700;2022-07-11T05:07:42;27.00;99.90
25512;DHT22;13414;44.534;18.700;2022-07-11T05:10:09;27.70;99.10
25512;DHT22;13414;44.534;18.700;2022-07-11T05:12:36;27.70;98.50
25512;DHT22;13414;44.534;18.700;2022-07-11T05:15:04;28.40;95.70
25512;DHT22;13414;44.534;18.700;2022-07-11T05:17:32;28.10;95.90
25512;DHT22;13414;44.534;18.700;2022-07-11T05:20:00;28.30;94.40
25512;DHT22;13414;44.534;18.700;2022-07-11T05:22:28;28.10;93.80
25512;DHT22;13414;44.534;18.700;2022-07-11T05:24:55;28.20;91.40
25512;DHT22;13414;44.534;18.700;2022-07-11T05:27:22;28.50;90.90
25512;DHT22;13414;44.534;18.700;2022-07-11T05:29:50;28.60;83.40
25512;DHT22;13414;44.534;18.700;2022-07-11T05:32:17;28.50;82.90
25512;DHT22;13414;44.534;18.700;2022-07-11T05:34:44;28.20;82.30
25512;DHT22;13414;44.534;18.700;2022-07-11T05:37:13;28.00;81.70
25512;DHT22;13414;44.534;18.700;2022-07-11T05:39:40;28.10;82.30
25512;DHT22;13414;44.534;18.700;2022-07-11T05:42:07;28.50;80.00
25512;DHT22;13414;44.534;18.700;2022-07-11T05:44:36;28.90;78.30
25512;DHT22;13414;44.534;18.700;2022-07-11T05:47:04;29.00;75.50
25512;DHT22;13414;44.534;18.700;2022-07-11T05:49:31;28.50;75.70
25512;DHT22;13414;44.534;18.700;2022-07-11T05:51:59;28.50;75.60
25512;DHT22;13414;44.534;18.700;2022-07-11T05:54:28;28.20;70.30
25512;DHT22;13414;44.534;18.700;2022-07-11T05:56:55;27.00;66.90
25512;DHT22;13414;44.534;18.700;2022-07-11T05:59:22;26.40;67.60
25512;DHT22;13414;44.534;18.700;2022-07-11T06:01:49;26.10;69.20
25512;DHT22;13414;44.534;18.700;2022-07-11T06:04:17;26.00;69.70
25512;DHT22;13414;44.534;18.700;2022-07-11T06:06:44;25.70;69.40
25512;DHT22;13414;44.534;18.700;2022-07-11T06:09:12;25.50;69.20
25512;DHT22;13414;44.534;18.700;2022-07-11T06:11:40;25.10;68.90
25512;DHT22;13414;44.534;18.700;2022-07-11T06:14:07;24.60;70.30
25512;DHT22;13414;44.534;18.700;2022-07-11T06:16:35;24.20;71.20
25512;DHT22;13414;44.534;18.700;2022-07-11T06:19:03;24.10;70.90
25512;DHT22;13414;44.534;18.700;2022-07-11T06:21:30;23.90;71.30
25512;DHT22;13414;44.534;18.700;2022-07-11T06:23:57;23.90;72.00
25512;DHT22;13414;44.534;18.700;2022-07-11T06:26:25;23.90;71.90
25512;DHT22;13414;44.534;18.700;2022-07-11T06:28:53;23.60;71.90
25512;DHT22;13414;44.534;18.700;2022-07-11T06:31:21;23.80;72.50
25512;DHT22;13414;44.534;18.700;2022-07-11T06:33:48;23.80;71.50
25512;DHT22;13414;44.534;18.700;2022-07-11T06:36:20;23.80;71.60
25512;DHT22;13414;44.534;18.700;2022-07-11T06:38:49;23.90;71.90
25512;DHT22;13414;44.534;18.700;2022-07-11T06:41:16;24.00;71.20
25512;DHT22;13414;44.534;18.700;2022-07-11T06:43:43;24.00;70.90
25512;DHT22;13414;44.534;18.700;2022-07-11T06:46:15;24.10;71.00
25512;DHT22;13414;44.534;18.700;2022-07-11T06:48:42;23.80;70.10
25512;DHT22;13414;44.534;18.700;2022-07-11T06:51:11;23.80;70.00
25512;DHT22;13414;44.534;18.700;2022-07-11T06:53:38;23.40;71.60
25512;DHT22;13414;44.534;18.700;2022-07-11T06:56:06;23.20;71.30
25512;DHT22;13414;44.534;18.700;2022-07-11T06:58:33;23.10;70.60
25512;DHT22;13414;44.534;18.700;2022-07-11T07:01:01;23.20;70.10
25512;DHT22;13414;44.534;18.700;2022-07-11T07:03:31;23.20;69.90
25512;DHT22;13414;44.534;18.700;2022-07-11T07:05:58;23.00;70.00
25512;DHT22;13414;44.534;18.700;2022-07-11T07:08:27;23.10;69.80
25512;DHT22;13414;44.534;18.700;2022-07-11T07:10:56;23.20;69.40
25512;DHT22;13414;44.534;18.700;2022-07-11T07:13:24;22.80;70.60
25512;DHT22;13414;44.534;18.700;2022-07-11T07:15:52;22.80;70.60
25512;DHT22;13414;44.534;18.700;2022-07-11T07:18:19;22.80;70.80
25512;DHT22;13414;44.534;18.700;2022-07-11T07:20:48;22.40;71.00
25512;DHT22;13414;44.534;18.700;2022-07-11T07:23:15;22.30;72.00
25512;DHT22;13414;44.534;18.700;2022-07-11T07:25:43;22.70;71.50
25512;DHT22;13414;44.534;18.700;2022-07-11T07:28:10;22.80;71.10
25512;DHT22;13414;44.534;18.700;2022-07-11T07:30:38;23.00;71.90
25512;DHT22;13414;44.534;18.700;2022-07-11T07:33:05;23.30;71.70
25512;DHT22;13414;44.534;18.700;2022-07-11T07:35:32;23.50;71.40
25512;DHT22;13414;44.534;18.700;2022-07-11T07:38:01;23.30;70.50
25512;DHT22;13414;44.534;18.700;2022-07-11T07:40:28;23.10;71.00
25512;DHT22;13414;44.534;18.700;2022-07-11T07:42:55;23.00;70.80
25512;DHT22;13414;44.534;18.700;2022-07-11T07:45:23;22.70;70.90
25512;DHT22;13414;44.534;18.700;2022-07-11T07:47:50;22.70;71.60
25512;DHT22;13414;44.534;18.700;2022-07-11T07:50:18;22.80;71.40
25512;DHT22;13414;44.534;18.700;2022-07-11T07:52:45;23.10;71.80
25512;DHT22;13414;44.534;18.700;2022-07-11T07:55:14;23.50;70.20
25512;DHT22;13414;44.534;18.700;2022-07-11T07:57:41;23.90;68.70
25512;DHT22;13414;44.534;18.700;2022-07-11T08:00:09;23.80;68.30
25512;DHT22;13414;44.534;18.700;2022-07-11T08:02:54;23.90;68.00
25512;DHT22;13414;44.534;18.700;2022-07-11T08:05:21;23.70;66.90
25512;DHT22;13414;44.534;18.700;2022-07-11T08:07:48;23.40;67.00
25512;DHT22;13414;44.534;18.700;2022-07-11T08:10:17;23.10;66.70
25512;DHT22;13414;44.534;18.700;2022-07-11T08:12:44;23.30;67.30
25512;DHT22;13414;44.534;18.700;2022-07-11T08:15:12;23.90;67.00
25512;DHT22;13414;44.534;18.700;2022-07-11T08:17:39;24.40;67.00
25512;DHT22;13414;44.534;18.700;2022-07-11T08:20:08;24.80;65.10
25512;DHT22;13414;44.534;18.700;2022-07-11T08:22:35;24.40;60.90
25512;DHT22;13414;44.534;18.700;2022-07-11T08:25:03;23.90;61.60
25512;DHT22;13414;44.534;18.700;2022-07-11T08:27:32;23.20;63.00
25512;DHT22;13414;44.534;18.700;2022-07-11T08:29:59;23.30;64.20
25512;DHT22;13414;44.534;18.700;2022-07-11T08:32:28;23.50;65.30
25512;DHT22;13414;44.534;18.700;2022-07-11T08:34:56;23.90;64.50
25512;DHT22;13414;44.534;18.700;2022-07-11T08:37:23;24.20;61.30
25512;DHT22;13414;44.534;18.700;2022-07-11T08:39:50;24.30;59.20
25512;DHT22;13414;44.534;18.700;2022-07-11T08:42:19;24.50;58.00
25512;DHT22;13414;44.534;18.700;2022-07-11T08:44:48;24.50;58.20
25512;DHT22;13414;44.534;18.700;2022-07-11T08:47:15;24.40;58.50
25512;DHT22;13414;44.534;18.700;2022-07-11T08:49:43;24.30;58.90
25512;DHT22;13414;44.534;18.700;2022-07-11T08:52:13;24.10;59.40
25512;DHT22;13414;44.534;18.700;2022-07-11T08:54:42;23.90;60.30
25512;DHT22;13414;44.534;18.700;2022-07-11T08:57:09;23.70;61.20
25512;DHT22;13414;44.534;18.700;2022-07-11T08:59:37;23.30;62.00
25512;DHT22;13414;44.534;18.700;2022-07-11T09:02:09;23.10;62.90
25512;DHT22;13414;44.534;18.700;2022-07-11T09:04:36;23.40;62.90
25512;DHT22;13414;44.534;18.700;2022-07-11T09:07:04;23.40;61.60
25512;DHT22;13414;44.534;18.700;2022-07-11T09:09:32;23.40;60.60
25512;DHT22;13414;44.534;18.700;2022-07-11T09:11:59;23.50;60.70
25512;DHT22;13414;44.534;18.700;2022-07-11T09:14:27;23.30;59.30
25512;DHT22;13414;44.534;18.700;2022-07-11T09:16:56;22.40;58.10
25512;DHT22;13414;44.534;18.700;2022-07-11T09:19:27;22.20;59.60
25512;DHT22;13414;44.534;18.700;2022-07-11T09:22:02;22.30;60.70
25512;DHT22;13414;44.534;18.700;2022-07-11T09:24:57;22.10;62.70
25512;DHT22;13414;44.534;18.700;2022-07-11T09:27:44;21.80;64.70
25512;DHT22;13414;44.534;18.700;2022-07-11T09:30:23;22.30;65.00
25512;DHT22;13414;44.534;18.700;2022-07-11T09:32:52;22.70;64.60
25512;DHT22;13414;44.534;18.700;2022-07-11T09:35:22;22.70;64.30
25512;DHT22;13414;44.534;18.700;2022-07-11T09:37:49;22.70;64.50
25512;DHT22;13414;44.534;18.700;2022-07-11T09:42:49;23.30;62.90
25512;DHT22;13414;44.534;18.700;2022-07-11T09:45:17;23.30;61.20
25512;DHT22;13414;44.534;18.700;2022-07-11T09:47:46;23.50;61.30
25512;DHT22;13414;44.534;18.700;2022-07-11T09:50:17;23.80;60.60
25512;DHT22;13414;44.534;18.700;2022-07-11T09:53:03;24.00;60.70
25512;DHT22;13414;44.534;18.700;2022-07-11T09:55:31;24.20;57.60
25512;DHT22;13414;44.534;18.700;2022-07-11T09:57:58;24.00;57.90
25512;DHT22;13414;44.534;18.700;2022-07-11T10:00:25;23.90;58.50
25512;DHT22;13414;44.534;18.700;2022-07-11T10:02:53;23.30;58.50
25512;DHT22;13414;44.534;18.700;2022-07-11T10:05:21;22.90;59.80
25512;DHT22;13414;44.534;18.700;2022-07-11T10:07:49;23.00;61.00
25512;DHT22;13414;44.534;18.700;2022-07-11T10:10:18;22.70;62.20
25512;DHT22;13414;44.534;18.700;2022-07-11T10:12:46;22.80;62.50
25512;DHT22;13414;44.534;18.700;2022-07-11T10:15:15;23.00;62.90
25512;DHT22;13414;44.534;18.700;2022-07-11T10:17:49;23.20;62.50
25512;DHT22;13414;44.534;18.700;2022-07-11T10:20:24;22.90;62.70
25512;DHT22;13414;44.534;18.700;2022-07-11T10:22:57;22.80;64.10
25512;DHT22;13414;44.534;18.700;2022-07-11T10:25:33;23.10;64.00
25512;DHT22;13414;44.534;18.700;2022-07-11T10:28:16;23.50;63.20
25512;DHT22;13414;44.534;18.700;2022-07-11T10:30:49;23.90;63.00
25512;DHT22;13414;44.534;18.700;2022-07-11T10:33:18;24.20;61.20
25512;DHT22;13414;44.534;18.700;2022-07-11T10:35:47;24.40;59.80
25512;DHT22;13414;44.534;18.700;2022-07-11T10:38:17;24.20;59.60
25512;DHT22;13414;44.534;18.700;2022-07-11T10:40:48;24.50;59.40
25512;DHT22;13414;44.534;18.700;2022-07-11T10:43:35;24.60;58.50
25512;DHT22;13414;44.534;18.700;2022-07-11T10:46:06;24.60;58.70
25512;DHT22;13414;44.534;18.700;2022-07-11T10:48:36;24.70;58.50
25512;DHT22;13414;44.534;18.700;2022-07-11T10:51:22;24.70;58.10
25512;DHT22;13414;44.534;18.700;2022-07-11T10:53:52;24.50;59.50
25512;DHT22;13414;44.534;18.700;2022-07-11T10:56:39;24.20;59.50
25512;DHT22;13414;44.534;18.700;2022-07-11T10:59:13;23.90;59.70
25512;DHT22;13414;44.534;18.700;2022-07-11T11:02:09;23.80;60.50
25512;DHT22;13414;44.534;18.700;2022-07-11T11:04:50;24.10;61.00
25512;DHT22;13414;44.534;18.700;2022-07-11T11:07:31;24.20;60.80
25512;DHT22;13414;44.534;18.700;2022-07-11T11:10:00;24.20;60.80
25512;DHT22;13414;44.534;18.700;2022-07-11T11:15:39;23.90;60.30
25512;DHT22;13414;44.534;18.700;2022-07-11T11:18:35;24.20;58.00
25512;DHT22;13414;44.534;18.700;2022-07-11T11:21:22;24.30;59.30
25512;DHT22;13414;44.534;18.700;2022-07-11T11:24:08;23.60;60.00
25512;DHT22;13414;44.534;18.700;2022-07-11T11:26:45;23.70;61.30
25512;DHT22;13414;44.534;18.700;2022-07-11T11:29:21;23.90;59.90
25512;DHT22;13414;44.534;18.700;2022-07-11T11:31:51;23.90;57.20
25512;DHT22;13414;44.534;18.700;2022-07-11T11:34:19;23.90;58.00
25512;DHT22;13414;44.534;18.700;2022-07-11T11:36:55;24.20;57.90
25512;DHT22;13414;44.534;18.700;2022-07-11T11:39:25;24.10;58.20
25512;DHT22;13414;44.534;18.700;2022-07-11T11:41:53;24.10;58.20
25512;DHT22;13414;44.534;18.700;2022-07-11T11:44:21;24.10;58.40
25512;DHT22;13414;44.534;18.700;2022-07-11T11:46:52;24.20;58.80
25512;DHT22;13414;44.534;18.700;2022-07-11T11:49:19;24.40;58.60
25512;DHT22;13414;44.534;18.700;2022-07-11T11:51:47;24.30;58.10
25512;DHT22;13414;44.534;18.700;2022-07-11T11:54:21;24.40;58.40
25512;DHT22;13414;44.534;18.700;2022-07-11T11:56:49;24.40;58.30
25512;DHT22;13414;44.534;18.700;2022-07-11T11:59:16;24.40;59.20
25512;DHT22;13414;44.534;18.700;2022-07-11T12:01:45;24.30;58.50
25512;DHT22;13414;44.534;18.700;2022-07-11T12:04:15;24.10;59.30
25512;DHT22;13414;44.534;18.700;2022-07-11T12:06:44;24.10;59.20
25512;DHT22;13414;44.534;18.700;2022-07-11T12:09:13;23.90;57.80
25512;DHT22;13414;44.534;18.700;2022-07-11T12:11:42;23.80;58.00
25512;DHT22;13414;44.534;18.700;2022-07-11T12:14:13;24.00;58.20
25512;DHT22;13414;44.534;18.700;2022-07-11T12:16:42;24.20;58.20
25512;DHT22;13414;44.534;18.700;2022-07-11T12:19:15;23.90;58.50
25512;DHT22;13414;44.534;18.700;2022-07-11T12:21:47;24.00;59.80
25512;DHT22;13414;44.534;18.700;2022-07-11T12:24:17;24.10;59.10
25512;DHT22;13414;44.534;18.700;2022-07-11T12:26:46;23.90;59.40
25512;DHT22;13414;44.534;18.700;2022-07-11T12:29:15;23.90;60.40
25512;DHT22;13414;44.534;18.700;2022-07-11T12:31:46;23.90;60.10
25512;DHT22;13414;44.534;18.700;2022-07-11T12:34:17;23.90;59.70
25512;DHT22;13414;44.534;18.700;2022-07-11T12:36:45;24.00;59.00
25512;DHT22;13414;44.534;18.700;2022-07-11T12:39:23;24.10;59.20
25512;DHT22;13414;44.534;18.700;2022-07-11T12:41:51;24.20;58.70
25512;DHT22;13414;44.534;18.700;2022-07-11T12:44:22;24.30;58.50
25512;DHT22;13414;44.534;18.700;2022-07-11T12:47:24;24.30;58.40
25512;DHT22;13414;44.534;18.700;2022-07-11T12:49:53;24.50;57.50
25512;DHT22;13414;44.534;18.700;2022-07-11T12:52:21;24.60;57.40
25512;DHT22;13414;44.534;18.700;2022-07-11T12:54:48;25.00;57.00
25512;DHT22;13414;44.534;18.700;2022-07-11T12:57:21;25.20;56.70
25512;DHT22;13414;44.534;18.700;2022-07-11T12:59:48;25.40;55.90
25512;DHT22;13414;44.534;18.700;2022-07-11T13:02:19;25.60;56.70
25512;DHT22;13414;44.534;18.700;2022-07-11T13:04:48;25.40;55.90
25512;DHT22;13414;44.534;18.700;2022-07-11T13:07:26;25.20;56.00
25512;DHT22;13414;44.534;18.700;2022-07-11T13:10:13;25.10;56.10
25512;DHT22;13414;44.534;18.700;2022-07-11T13:12:42;25.20;56.10
25512;DHT22;13414;44.534;18.700;2022-07-11T13:15:11;25.40;55.50
25512;DHT22;13414;44.534;18.700;2022-07-11T13:17:40;25.40;55.70
25512;DHT22;13414;44.534;18.700;2022-07-11T13:20:09;25.20;55.30
25512;DHT22;13414;44.534;18.700;2022-07-11T13:22:40;25.00;56.00
25512;DHT22;13414;44.534;18.700;2022-07-11T13:25:09;24.60;56.00
25512;DHT22;13414;44.534;18.700;2022-07-11T13:27:38;24.30;57.50
25512;DHT22;13414;44.534;18.700;2022-07-11T13:30:07;24.50;57.60
25512;DHT22;13414;44.534;18.700;2022-07-11T13:32:38;24.50;56.90
25512;DHT22;13414;44.534;18.700;2022-07-11T13:35:07;24.90;56.80
25512;DHT22;13414;44.534;18.700;2022-07-11T13:37:35;25.10;56.90
25512;DHT22;13414;44.534;18.700;2022-07-11T13:40:07;25.00;56.60
25512;DHT22;13414;44.534;18.700;2022-07-11T13:42:35;25.00;55.40
25512;DHT22;13414;44.534;18.700;2022-07-11T13:45:03;24.70;55.60
25512;DHT22;13414;44.534;18.700;2022-07-11T13:47:31;24.90;55.50
25512;DHT22;13414;44.534;18.700;2022-07-11T13:49:59;24.80;55.80
25512;DHT22;13414;44.534;18.700;2022-07-11T13:52:27;24.70;56.30
25512;DHT22;13414;44.534;18.700;2022-07-11T13:54:55;24.20;56.40
25512;DHT22;13414;44.534;18.700;2022-07-11T13:57:24;23.90;56.80
25512;DHT22;13414;44.534;18.700;2022-07-11T13:59:51;24.10;56.80
25512;DHT22;13414;44.534;18.700;2022-07-11T14:02:19;24.40;56.80
25512;DHT22;13414;44.534;18.700;2022-07-11T14:04:46;24.50;56.50
25512;DHT22;13414;44.534;18.700;2022-07-11T14:07:13;24.80;56.60
25512;DHT22;13414;44.534;18.700;2022-07-11T14:09:41;24.70;56.80
25512;DHT22;13414;44.534;18.700;2022-07-11T14:12:09;24.80;57.30
25512;DHT22;13414;44.534;18.700;2022-07-11T14:14:39;24.70;56.80
25512;DHT22;13414;44.534;18.700;2022-07-11T14:17:06;24.50;56.80
25512;DHT22;13414;44.534;18.700;2022-07-11T14:19:34;24.40;57.10
25512;DHT22;13414;44.534;18.700;2022-07-11T14:22:05;24.30;57.20
25512;DHT22;13414;44.534;18.700;2022-07-11T14:24:32;24.40;57.40
25512;DHT22;13414;44.534;18.700;2022-07-11T14:26:59;24.60;57.30
25512;DHT22;13414;44.534;18.700;2022-07-11T14:29:27;24.90;57.30
25512;DHT22;13414;44.534;18.700;2022-07-11T14:31:56;24.90;57.20
25512;DHT22;13414;44.534;18.700;2022-07-11T14:34:23;24.90;56.70
25512;DHT22;13414;44.534;18.700;2022-07-11T14:36:50;24.70;57.90
25512;DHT22;13414;44.534;18.700;2022-07-11T14:39:21;24.50;57.90
25512;DHT22;13414;44.534;18.700;2022-07-11T14:41:50;24.50;58.20
25512;DHT22;13414;44.534;18.700;2022-07-11T14:44:17;24.20;59.20
25512;DHT22;13414;44.534;18.700;2022-07-11T14:46:46;24.00;58.90
25512;DHT22;13414;44.534;18.700;2022-07-11T14:49:15;23.90;59.10
25512;DHT22;13414;44.534;18.700;2022-07-11T14:51:42;23.90;58.80
25512;DHT22;13414;44.534;18.700;2022-07-11T14:54:10;23.90;58.90
25512;DHT22;13414;44.534;18.700;2022-07-11T14:56:38;23.90;59.80
25512;DHT22;13414;44.534;18.700;2022-07-11T14:59:07;23.90;59.60
25512;DHT22;13414;44.534;18.700;2022-07-11T15:01:34;24.10;59.40
25512;DHT22;13414;44.534;18.700;2022-07-11T15:04:02;24.30;59.00
25512;DHT22;13414;44.534;18.700;2022-07-11T15:06:31;24.50;59.30
25512;DHT22;13414;44.534;18.700;2022-07-11T15:09:15;24.60;58.60
25512;DHT22;13414;44.534;18.700;2022-07-11T15:12:00;24.80;59.00
25512;DHT22;13414;44.534;18.700;2022-07-11T15:14:45;25.20;58.00
25512;DHT22;13414;44.534;18.700;2022-07-11T15:17:12;25.20;58.80
25512;DHT22;13414;44.534;18.700;2022-07-11T15:19:40;25.10;58.20
25512;DHT22;13414;44.534;18.700;2022-07-11T15:22:08;25.00;58.80
25512;DHT22;13414;44.534;18.700;2022-07-11T15:24:38;24.60;59.20
25512;DHT22;13414;44.534;18.700;2022-07-11T15:27:06;24.50;59.20
25512;DHT22;13414;44.534;18.700;2022-07-11T15:29:33;24.40;59.50
25512;DHT22;13414;44.534;18.700;2022-07-11T15:32:00;24.50;59.40
25512;DHT22;13414;44.534;18.700;2022-07-11T15:34:27;24.50;59.50